Decoded Metar for KFSE (FOSSTON in MN, USA) (IATA:FSE) | Meteo·Mobile Aviation Weather
aviador You're here:

KFSE Decoded Metar

FOSSTON in MN, USA
Report Time2019-10-22 13:56:00
UTC Time2019-10-22 14:02:38
Flight Rules ifr IFR
Wind310° at 23 Gusting to 34 kt
W.Decomp.*RWY 34: 19.3 kt HW 12.5 kt LCW
Visibility9999 m
Phenomena:Light Drizzle
Clouds:Overcast 007 Hf
Expected CloudBase > 400 ft AGL from Temp-Dew spread
Ceiling700 ft
Temp01°C (ISA -11)
Dew Point00°C (93% RH)
AAT-9.3°C
QNH999 hPa
Density Alt449 ft
Elevation1,276 ft
Report Wrong Elevation
Raw Report
KFSE 221356Z AUTO 31023G34KT 10SM -DZ OVC007 01/00 A2950 RMK
AO2=

Extra information for KFSE:More info

Metar Taf Metar & Taf Last 4 Metars F.Rules Stats Wind Profile Meteogram Temp Stats Airport Information Weather charts Add Link Nearby VenuesMetar ALERT Operation Metar Decoded Social comments

AIRNAV info for KFSE